createdAt,value
2022-12-12T15:20:58.120Z,20.1
2022-12-12T15:22:07.400Z,20.3
2022-12-12T15:23:16.885Z,20.3
2022-12-12T15:24:26.003Z,20.3
2022-12-12T15:25:36.062Z,20.4
2022-12-12T15:26:45.964Z,20.4
2022-12-12T15:27:56.021Z,20.4
2022-12-12T15:29:06.481Z,20.4
2022-12-12T15:30:16.582Z,20.4
2022-12-12T15:31:26.642Z,20.4
2022-12-12T15:32:36.820Z,20.4
2022-12-12T15:33:46.622Z,20.4
2022-12-12T15:34:57.097Z,20.4
2022-12-12T15:36:07.400Z,20.4
2022-12-12T15:37:17.021Z,20.5
2022-12-12T15:38:27.131Z,20.5
2022-12-12T15:39:36.559Z,20.5
2022-12-12T15:40:46.421Z,20.5
2022-12-12T15:41:56.762Z,20.5
2022-12-12T15:43:06.621Z,20.5
2022-12-12T15:44:17.005Z,20.5
2022-12-12T15:45:27.105Z,20.5
2022-12-12T15:46:37.821Z,20.5
2022-12-12T15:47:47.163Z,20.6
2022-12-12T15:48:57.400Z,20.6
2022-12-12T15:50:07.503Z,20.6
2022-12-12T15:51:17.722Z,20.6
2022-12-12T15:52:27.572Z,20.6
2022-12-12T15:53:37.940Z,20.6
2022-12-12T15:54:46.837Z,20.6
2022-12-12T15:55:57.161Z,20.6
2022-12-12T15:57:07.401Z,20.6
2022-12-12T15:58:17.242Z,20.6
2022-12-12T15:59:27.341Z,20.7
2022-12-12T16:00:37.478Z,20.7
2022-12-12T16:01:47.543Z,20.7
2022-12-12T16:02:57.763Z,20.7
2022-12-12T16:04:07.758Z,20.7
2022-12-12T16:05:18.184Z,20.7
2022-12-12T16:06:27.987Z,20.7
2022-12-12T16:07:38.407Z,20.7
2022-12-12T16:08:48.249Z,20.7
2022-12-12T16:09:57.620Z,20.7
2022-12-12T16:11:07.503Z,20.7
2022-12-12T16:12:17.824Z,20.7
2022-12-12T16:13:27.702Z,20.7
2022-12-12T16:14:38.037Z,20.7
2022-12-12T16:15:47.981Z,20.7
2022-12-12T16:16:58.099Z,20.7
2022-12-12T16:18:08.137Z,20.8
2022-12-12T16:19:18.561Z,20.8
2022-12-12T16:20:28.562Z,20.8
2022-12-12T16:21:38.666Z,20.8
2022-12-12T16:22:48.661Z,20.8
2022-12-12T16:23:58.806Z,20.8
2022-12-12T16:25:07.879Z,20.8
2022-12-12T16:26:18.284Z,20.8
2022-12-12T16:27:28.106Z,20.8
2022-12-12T16:28:38.440Z,20.8
2022-12-12T16:29:48.761Z,20.8
2022-12-12T16:30:58.723Z,20.8
2022-12-12T16:32:08.620Z,20.8
2022-12-12T16:33:18.841Z,20.8
2022-12-12T16:34:28.883Z,20.8
2022-12-12T16:35:39.218Z,20.8
2022-12-12T16:36:49.102Z,20.8
2022-12-12T16:37:59.402Z,20.8
2022-12-12T16:39:09.281Z,20.8
2022-12-12T16:40:18.681Z,20.8
2022-12-12T16:41:28.593Z,20.9
2022-12-12T16:42:38.901Z,20.9
2022-12-12T16:43:48.801Z,20.9
2022-12-12T16:44:59.012Z,20.9
2022-12-12T16:46:09.062Z,21
2022-12-12T16:47:19.160Z,21
2022-12-12T16:48:29.266Z,21
2022-12-12T16:49:39.405Z,21
2022-12-12T16:50:49.506Z,21
2022-12-12T16:51:59.862Z,21
2022-12-12T16:53:09.981Z,21.1
2022-12-12T16:54:20.120Z,21.1
2022-12-12T16:55:29.242Z,21.1
2022-12-12T16:56:39.340Z,21.1
2022-12-12T16:57:49.239Z,21.1
2022-12-12T16:58:59.498Z,21.1
2022-12-12T17:00:09.678Z,21.1
2022-12-12T17:01:19.802Z,21.1
2022-12-12T17:02:29.905Z,21.1
2022-12-12T17:03:40.042Z,21.2
2022-12-12T17:04:49.923Z,21.1
2022-12-12T17:06:00.320Z,21.1
2022-12-12T17:07:10.276Z,21.2
2022-12-12T17:18:51.581Z,21.2
2022-12-12T17:20:01.665Z,21.2
2022-12-12T17:21:10.843Z,21.2
2022-12-12T17:22:19.683Z,21.2
2022-12-12T17:24:08.709Z,21.2
2022-12-12T17:24:39.862Z,21.2
2022-12-12T17:25:50.319Z,21.2
2022-12-12T17:27:00.442Z,21.2
2022-12-12T17:28:10.542Z,21.2
2022-12-12T17:29:20.665Z,21.2
2022-12-12T17:30:30.769Z,21.2
2022-12-12T17:31:40.562Z,21.2
2022-12-12T17:34:00.702Z,21.2
2022-12-12T17:35:09.442Z,21.2
2022-12-12T17:36:19.402Z,21.2
2022-12-12T17:37:29.544Z,21.1
2022-12-12T17:38:39.318Z,21.2
2022-12-12T17:39:49.785Z,21.2
2022-12-12T17:40:59.600Z,21.1
2022-12-12T17:42:09.744Z,21.2
2022-12-12T17:43:19.843Z,21.2
2022-12-12T17:44:29.883Z,21.1
2022-12-12T17:45:40.028Z,21.1
2022-12-12T17:46:49.527Z,21.1
2022-12-12T17:47:58.601Z,21.1
2022-12-12T17:49:08.424Z,21.1
2022-12-12T17:50:18.823Z,21.1
2022-12-12T17:51:28.710Z,21.1
2022-12-12T17:52:38.773Z,21.1
2022-12-12T17:53:48.890Z,21.1
2022-12-12T17:54:59.301Z,21.1
2022-12-12T17:56:09.157Z,21.1
2022-12-12T17:57:19.629Z,21.1
2022-12-12T17:58:29.664Z,21.1
2022-12-12T17:59:39.442Z,21.1
2022-12-12T18:00:49.886Z,21.1
2022-12-12T18:01:59.978Z,21.1
2022-12-12T18:03:08.842Z,21.1
2022-12-12T18:04:19.024Z,21.1
2022-12-12T18:05:29.082Z,21.1
2022-12-12T18:06:39.160Z,21.1
2022-12-12T18:07:49.388Z,21.1
2022-12-12T18:08:59.725Z,21.1
2022-12-12T18:10:09.864Z,21.1
2022-12-12T18:11:19.964Z,21.1
2022-12-12T18:12:30.089Z,21.1
2022-12-12T18:13:38.904Z,21.1
2022-12-12T18:14:48.099Z,21.1
2022-12-12T18:16:17.780Z,21.1
2022-12-12T18:17:27.601Z,21
2022-12-12T18:18:37.663Z,21.1
2022-12-12T18:19:47.800Z,21.1
2022-12-12T18:20:58.229Z,21.1
2022-12-12T18:22:08.061Z,21
2022-12-12T18:23:18.198Z,21.1
2022-12-12T18:24:28.292Z,21
2022-12-12T18:25:38.361Z,21.1
2022-12-12T18:40:20.485Z,16.2
2022-12-12T18:41:30.697Z,1.5
2022-12-12T18:42:40.663Z,0.6
2022-12-12T18:43:50.244Z,-0.1
2022-12-12T18:45:00.366Z,-0.7
2022-12-12T18:46:10.481Z,-1.1
2022-12-12T18:47:20.607Z,-1.5
2022-12-12T18:48:30.748Z,-1.9
2022-12-12T18:49:40.506Z,-2.2
2022-12-12T18:50:50.679Z,-2.4
2022-12-12T18:52:00.804Z,-2.6
2022-12-12T18:53:11.083Z,-2.8
2022-12-12T18:54:21.282Z,-3
2022-12-12T18:55:31.161Z,-3.2
2022-12-12T18:56:41.202Z,-3.4
2022-12-12T18:57:51.681Z,-3.6
2022-12-12T18:59:01.766Z,-3.7
2022-12-12T19:00:11.858Z,-3.9
2022-12-12T19:01:22.041Z,-4
2022-12-12T19:02:31.844Z,-4
2022-12-12T19:03:41.904Z,-4.1
2022-12-12T19:04:52.304Z,-4.2
2022-12-12T19:06:02.439Z,-4.3
2022-12-12T19:07:12.625Z,-4.3
2022-12-12T19:08:22.388Z,-4.4
2022-12-12T19:09:32.526Z,-4.4
2022-12-12T19:10:42.689Z,-4.5
2022-12-12T19:11:53.064Z,-4.5
2022-12-12T19:13:02.927Z,-4.6
2022-12-12T19:14:13.120Z,-4.6
2022-12-12T19:15:23.287Z,-4.6
2022-12-12T19:16:33.416Z,-4.7
2022-12-12T19:17:43.540Z,-4.7
2022-12-12T19:18:53.825Z,-4.7
2022-12-12T19:20:03.922Z,-4.8
2022-12-12T19:21:14.361Z,-4.8
2022-12-12T19:22:24.221Z,-4.9
2022-12-12T19:23:34.383Z,-4.9
2022-12-12T19:24:44.583Z,-5
2022-12-12T19:25:54.761Z,-5
2022-12-12T19:27:05.245Z,-5
2022-12-12T19:28:15.441Z,-5
2022-12-12T19:38:47.548Z,-5
2022-12-12T19:39:57.620Z,-5
2022-12-12T19:41:07.808Z,-5
2022-12-12T19:42:18.382Z,-5
2022-12-12T19:44:57.698Z,-5
2022-12-12T19:46:07.187Z,-5
2022-12-12T19:47:17.762Z,-5
2022-12-12T19:48:27.745Z,-5
2022-12-12T19:49:37.282Z,-5
2022-12-12T19:50:47.363Z,-5
2022-12-12T19:51:57.284Z,-5.1
2022-12-12T19:53:07.302Z,-5.1
2022-12-12T19:54:17.784Z,-5.1
2022-12-12T19:55:27.632Z,-5.1
2022-12-12T19:56:37.710Z,-5.1
2022-12-12T19:57:47.786Z,-5.1
2022-12-12T19:58:57.944Z,-5.1
2022-12-12T20:00:08.014Z,-5.1
2022-12-12T20:01:18.205Z,-5.1
2022-12-12T20:02:28.244Z,-5.1
2022-12-12T20:03:38.645Z,-5.2
2022-12-12T20:04:48.505Z,-5.2
2022-12-12T20:05:58.630Z,-5.2
2022-12-12T20:07:08.714Z,-5.2
2022-12-12T20:08:19.163Z,-5.2
2022-12-12T20:09:28.960Z,-5.2
2022-12-12T20:10:39.383Z,-5.2
2022-12-12T20:11:49.243Z,-5.1
2022-12-12T20:12:59.293Z,-5.1
2022-12-12T20:14:09.807Z,-5.1
2022-12-12T20:15:19.841Z,-5.2
2022-12-12T20:16:30.042Z,-5.2
2022-12-12T20:17:40.104Z,-5.2
2022-12-12T20:18:50.255Z,-5.2
2022-12-12T20:20:00.125Z,-5.2
2022-12-12T20:21:10.644Z,-5.2
2022-12-12T20:22:20.789Z,-5.2
2022-12-12T20:23:30.925Z,-5.2
2022-12-12T20:24:39.823Z,-5.2
2022-12-12T20:25:49.909Z,-5.3
2022-12-12T20:27:00.032Z,-5.3
2022-12-12T20:28:10.368Z,-5.3
2022-12-12T20:29:20.525Z,-5.3
2022-12-12T20:30:30.682Z,-5.4
2022-12-12T20:31:40.523Z,-5.4
2022-12-12T20:32:50.947Z,-5.4
2022-12-12T20:34:00.728Z,-5.4
2022-12-12T20:35:11.124Z,-5.4
2022-12-12T20:36:21.245Z,-5.4
2022-12-12T20:37:31.405Z,-5.5
2022-12-12T20:38:41.503Z,-5.5
2022-12-12T20:39:51.603Z,-5.5
2022-12-12T20:41:01.407Z,-5.5
2022-12-12T20:42:11.823Z,-5.5
2022-12-12T20:43:21.966Z,-5.5
2022-12-12T20:44:32.083Z,-5.5
2022-12-12T20:45:42.631Z,-5.5
2022-12-12T20:46:52.341Z,-5.5
2022-12-12T20:48:02.121Z,-5.5
2022-12-12T20:49:12.565Z,-5.5
2022-12-12T20:50:22.642Z,-5.6
2022-12-12T20:51:32.562Z,-5.6
2022-12-12T20:52:42.638Z,-5.6
2022-12-12T20:53:52.825Z,-5.6
2022-12-12T20:55:02.905Z,-5.6
2022-12-12T20:56:13.140Z,-5.6
2022-12-12T20:57:23.323Z,-5.6
2022-12-12T20:58:33.464Z,-5.6
2022-12-12T20:59:43.910Z,-5.6
2022-12-12T21:00:54.162Z,-5.5
2022-12-12T21:02:03.907Z,-5.6
2022-12-12T21:03:14.384Z,-5.6
2022-12-12T21:04:24.565Z,-5.5
2022-12-12T21:05:34.661Z,-5.6
2022-12-12T21:06:43.944Z,-5.6
2022-12-12T21:07:54.021Z,-5.6
2022-12-12T21:09:03.820Z,-5.5
2022-12-12T21:10:14.264Z,-5.5
2022-12-12T21:11:24.345Z,-5.5
2022-12-12T21:12:34.523Z,-5.4
2022-12-12T21:13:44.322Z,-5.4
2022-12-12T21:14:54.683Z,-5.4
2022-12-12T21:16:04.507Z,-5.4
2022-12-12T21:17:14.682Z,-5.4
2022-12-12T21:18:24.823Z,-5.4
2022-12-12T21:19:34.941Z,-5.4
2022-12-12T21:20:44.980Z,-5.4
2022-12-12T21:21:55.223Z,-5.4
2022-12-12T21:23:05.230Z,-5.4
2022-12-12T21:24:15.712Z,-5.4
2022-12-12T21:25:25.809Z,-5.4
2022-12-12T21:26:35.863Z,-5.4
2022-12-12T21:27:45.999Z,-5.4
2022-12-12T21:28:56.143Z,-5.4
2022-12-12T21:30:05.920Z,-5.4
2022-12-12T21:31:16.367Z,-5.5
2022-12-12T21:32:26.485Z,-5.5
2022-12-12T21:34:07.342Z,-5.5
2022-12-12T21:34:46.722Z,-5.5
2022-12-12T21:35:56.899Z,-5.5
2022-12-12T21:37:06.728Z,-5.5
2022-12-12T21:38:17.167Z,-5.5
2022-12-12T21:39:27.384Z,-5.5
2022-12-12T21:40:37.482Z,-5.5
2022-12-12T21:41:47.683Z,-5.5
2022-12-12T21:42:57.547Z,-5.5
2022-12-12T21:44:07.703Z,-5.5
2022-12-12T21:45:17.981Z,-5.5
2022-12-12T21:46:28.083Z,-5.5
2022-12-12T21:47:37.541Z,-5.4
2022-12-12T21:48:47.661Z,-5.4
2022-12-12T21:49:57.545Z,-5.4
2022-12-12T21:51:07.566Z,-5.4
2022-12-12T21:52:18.041Z,-5.4
2022-12-12T21:53:28.161Z,-5.4
2022-12-12T21:54:38.245Z,-5.4
2022-12-12T21:55:48.342Z,-5.4
2022-12-12T21:56:58.181Z,-5.4
2022-12-12T21:58:08.589Z,-5.4
2022-12-12T21:59:18.685Z,-5.5
2022-12-12T22:00:28.821Z,-5.5
2022-12-12T22:01:38.961Z,-5.6
2022-12-12T22:02:49.021Z,-5.5
2022-12-12T22:03:58.885Z,-5.5
2022-12-12T22:05:09.278Z,-5.5
2022-12-12T22:06:19.403Z,-5.5
2022-12-12T22:07:29.501Z,-5.5
2022-12-12T22:08:39.381Z,-5.5
2022-12-12T22:09:49.505Z,-5.4
2022-12-12T22:10:59.582Z,-5.4
2022-12-12T22:12:09.744Z,-5.4
2022-12-12T22:13:19.863Z,-5.4
2022-12-12T22:14:30.103Z,-5.4
2022-12-12T22:15:40.362Z,-5.4
2022-12-12T22:16:50.524Z,-5.4
2022-12-12T22:18:00.371Z,-5.3
2022-12-12T22:19:10.881Z,-5.3
2022-12-12T22:20:21.022Z,-5.3
2022-12-12T22:21:31.327Z,-5.3
2022-12-12T22:22:41.343Z,-5.2
2022-12-12T22:23:51.519Z,-5.2
2022-12-12T22:25:01.340Z,-5.2
2022-12-12T22:26:11.799Z,-5.2
2022-12-12T22:27:21.963Z,-5.1
2022-12-12T22:28:31.959Z,-5.1
2022-12-12T22:29:42.342Z,-5.1
2022-12-12T22:30:52.643Z,-5.1
2022-12-12T22:32:02.425Z,-5.1
2022-12-12T22:33:12.082Z,-5.1
2022-12-12T22:34:22.358Z,-5.1
2022-12-12T22:35:32.341Z,-5.1
2022-12-12T22:36:41.644Z,-5.1
2022-12-12T22:37:51.743Z,-5
2022-12-12T22:39:01.902Z,-5
2022-12-12T22:40:12.242Z,-5
2022-12-12T22:41:22.298Z,-5
2022-12-12T22:42:32.483Z,-5
2022-12-12T22:43:42.583Z,-5
2022-12-12T22:44:52.707Z,-5
2022-12-12T22:46:02.558Z,-5
2022-12-12T22:47:12.943Z,-5
2022-12-12T22:48:23.023Z,-5
2022-12-12T22:49:33.163Z,-4.9
2022-12-12T22:50:43.285Z,-4.9
2022-12-12T22:51:53.424Z,-5
2022-12-12T22:53:03.281Z,-5
2022-12-12T22:54:13.602Z,-4.9
2022-12-12T22:55:23.653Z,-4.9
2022-12-12T22:56:33.879Z,-4.9
2022-12-12T22:57:43.743Z,-4.9
2022-12-12T22:58:54.048Z,-4.9
2022-12-12T23:00:03.988Z,-4.9
2022-12-12T23:01:14.124Z,-4.9
2022-12-12T23:02:24.219Z,-4.8
2022-12-12T23:03:34.343Z,-4.7
2022-12-12T23:04:44.425Z,-4.7
2022-12-12T23:05:54.643Z,-4.7
2022-12-12T23:07:04.904Z,-4.7
2022-12-12T23:08:15.160Z,-4.7
2022-12-12T23:09:25.126Z,-4.6
2022-12-12T23:10:35.544Z,-4.6
2022-12-12T23:11:45.402Z,-4.5
2022-12-12T23:12:55.839Z,-4.5
2022-12-12T23:14:06.681Z,-4.5
2022-12-12T23:15:16.745Z,-4.4
2022-12-12T23:16:26.525Z,-4.4
2022-12-12T23:17:36.506Z,-4.3
2022-12-12T23:18:46.644Z,-4.3
2022-12-12T23:19:56.784Z,-4.2
2022-12-12T23:31:39.020Z,-4.1
2022-12-12T23:32:48.341Z,-4
2022-12-12T23:33:58.083Z,-4
2022-12-12T23:35:07.422Z,-4
2022-12-12T23:36:17.501Z,-4
2022-12-12T23:37:27.602Z,-3.9
2022-12-12T23:39:03.425Z,-3.9
2022-12-12T23:39:47.664Z,-3.9
2022-12-12T23:40:57.941Z,-3.9
2022-12-12T23:42:08.225Z,-3.8
2022-12-12T23:43:18.127Z,-3.8
2022-12-12T23:44:28.160Z,-3.8
2022-12-12T23:45:38.170Z,-3.8
2022-12-12T23:46:48.240Z,-3.7
2022-12-12T23:47:58.344Z,-3.7
2022-12-12T23:49:08.441Z,-3.7
2022-12-12T23:50:18.984Z,-3.7
2022-12-12T23:51:28.658Z,-3.7
2022-12-12T23:52:38.803Z,-3.6
2022-12-12T23:53:48.983Z,-3.6
2022-12-12T23:54:59.262Z,-3.6
2022-12-12T23:56:09.141Z,-3.6
2022-12-12T23:57:19.582Z,-3.6
2022-12-12T23:58:29.381Z,-3.6
2022-12-12T23:59:39.485Z,-3.6
